Airport Name : Pisco Intl

Other Name : Pisco Intl

ICAO : SPSO

IATA : PIO

FAA :

Latitude : -13.744864

Longitude : -76.220284

Country : Peru

Local Date and Time : 29 May 2024 23:21

 

TAF (Terminal Aerodrome Forecast)

TAF AMD SPSO 300300Z 3003/3024 07003KT 4000 BR OVC008 TX20/3019Z TN15/3011Z TEMPO 3010/3013 2000 OVC004 BECMG 3014/3016 27010KT FEW012 BECMG 3021/3023 21010KT

 

METAR (METeorological Aerodrome Report)

SPSO 300400Z 05005KT 4000 BR OVC009 17/15 Q1015 RMK PP000

SPSO 300300Z 07003KT 4000 BR BKN009 17/15 Q1015 RMK PP000

SPSO 300200Z 03006KT 5000 BR NSC 17/15 Q1015 RMK PP000

SPSO 300100Z 01006KT 6000 NSC 17/15 Q1014 RMK BR PP000